Time;durP1;ratioP1;P1;durP2;ratioP2;P2;SDS_P1;SDS_P2;PMS_P1;PMS_P2;Temp;Humidity;BMP_temperature;BMP_pressure;BME280_temperature;BME280_humidity;BME280_pressure;Samples;Min_cycle;Max_cycle;Signal;HPM_P1;HPM_P2
2022/06/02 00:02:37;;;;;;;2.23;2.00;;;18.70;61.90;;;;;;10362835;28;20667;-77
2022/06/02 00:08:02;;;;;;;3.40;1.70;;;18.60;61.50;;;;;;10369095;28;20276;-77
2022/06/02 00:13:17;;;;;;;1.93;1.83;;;18.60;61.40;;;;;;10362766;28;20202;-77
2022/06/02 00:18:27;;;;;;;2.43;1.90;;;18.60;63.60;;;;;;10369889;28;20249;-77
2022/06/02 00:23:39;;;;;;;1.90;1.80;;;18.60;62.50;;;;;;10367127;28;20294;-77
2022/06/02 00:28:52;;;;;;;2.30;2.10;;;18.60;62.20;;;;;;10359618;28;20578;-77
2022/06/02 00:34:00;;;;;;;2.27;2.07;;;18.50;61.40;;;;;;10365628;28;20229;-78
2022/06/02 00:39:03;;;;;;;2.70;1.50;;;18.40;62.70;;;;;;10372323;28;20226;-77
2022/06/02 00:44:15;;;;;;;2.00;1.90;;;18.40;62.90;;;;;;10365481;28;20679;-77
2022/06/02 00:49:22;;;;;;;2.20;2.10;;;18.40;62.00;;;;;;10360723;28;20223;-77
2022/06/02 01:00:05;;;;;;;2.60;2.00;;;18.30;64.10;;;;;;10359522;28;20698;-77
2022/06/02 01:05:08;;;;;;;1.90;1.80;;;18.30;64.70;;;;;;10338602;28;20212;-77
2022/06/02 01:10:25;;;;;;;2.33;2.23;;;18.30;65.20;;;;;;10366024;28;20322;-77
2022/06/02 01:15:40;;;;;;;1.80;1.70;;;18.30;62.70;;;;;;10368347;28;20701;-77
2022/06/02 01:20:54;;;;;;;2.17;1.97;;;18.30;64.50;;;;;;10367449;28;20222;-77
2022/06/02 01:26:25;;;;;;;2.27;2.10;;;18.30;62.80;;;;;;10369873;28;20648;-77
2022/06/02 01:31:54;;;;;;;1.80;1.70;;;18.30;65.40;;;;;;10371047;28;20698;-77
2022/06/02 01:37:03;;;;;;;2.13;1.80;;;18.30;66.50;;;;;;10359747;28;20192;-77
2022/06/02 01:42:13;;;;;;;2.30;2.10;;;18.30;64.50;;;;;;10359139;28;20691;-77
2022/06/02 01:47:21;;;;;;;2.30;2.03;;;18.30;63.60;;;;;;10360606;28;20234;-77
2022/06/02 01:52:43;;;;;;;2.53;2.43;;;18.20;63.10;;;;;;10362600;28;20223;-77
2022/06/02 01:58:03;;;;;;;2.80;2.23;;;18.10;64.50;;;;;;10369185;28;20203;-77
2022/06/02 02:03:17;;;;;;;2.87;2.67;;;18.00;65.60;;;;;;10345630;28;20217;-76
2022/06/02 02:08:29;;;;;;;2.80;2.60;;;18.00;64.40;;;;;;10369537;28;20310;-77
2022/06/02 02:13:43;;;;;;;2.33;2.10;;;18.00;63.60;;;;;;10367003;28;20237;-76
2022/06/02 02:18:54;;;;;;;2.57;2.40;;;17.90;64.20;;;;;;10364021;28;20691;-76
2022/06/02 02:24:08;;;;;;;3.20;2.40;;;17.90;64.30;;;;;;10342304;28;20210;-77
2022/06/02 02:29:22;;;;;;;4.00;2.40;;;17.80;64.60;;;;;;10342070;28;20313;-77
2022/06/02 02:34:37;;;;;;;2.67;2.47;;;17.80;62.50;;;;;;10341284;28;20210;-77
2022/06/02 02:39:49;;;;;;;2.60;2.40;;;17.80;65.10;;;;;;10339622;28;20221;-77
2022/06/02 02:45:06;;;;;;;2.60;2.50;;;17.70;65.80;;;;;;10355292;28;20226;-77
2022/06/02 02:50:15;;;;;;;2.43;2.33;;;17.70;63.60;;;;;;10342980;28;20223;-77
2022/06/02 02:55:21;;;;;;;2.73;2.50;;;17.60;65.40;;;;;;10345868;28;20243;-77
2022/06/02 03:00:29;;;;;;;2.90;2.30;;;17.60;66.40;;;;;;10372258;28;20302;-77
2022/06/02 03:05:43;;;;;;;3.17;2.90;;;17.60;63.90;;;;;;10371897;28;20212;-77
2022/06/02 03:10:48;;;;;;;2.30;2.20;;;17.60;66.20;;;;;;10363164;28;20241;-77
2022/06/02 03:15:54;;;;;;;3.97;2.53;;;17.60;65.50;;;;;;10364040;28;20629;-78
2022/06/02 03:21:07;;;;;;;2.57;2.47;;;17.60;66.70;;;;;;10366415;28;20222;-77
2022/06/02 03:26:16;;;;;;;2.83;2.73;;;17.50;64.90;;;;;;10356658;28;20215;-78
2022/06/02 03:31:29;;;;;;;2.90;2.80;;;17.50;67.00;;;;;;10365616;28;20223;-77
2022/06/02 03:36:51;;;;;;;2.80;2.60;;;17.60;64.90;;;;;;10360558;28;20794;-77
2022/06/02 03:42:08;;;;;;;3.77;3.47;;;17.60;63.20;;;;;;10358706;28;20762;-78
2022/06/02 03:47:26;;;;;;;3.17;2.97;;;17.60;66.30;;;;;;10372200;28;20217;-77
2022/06/02 03:52:54;;;;;;;3.00;2.60;;;17.60;67.30;;;;;;10374781;28;20597;-78
2022/06/02 03:58:11;;;;;;;3.17;2.93;;;17.50;64.30;;;;;;10369220;28;20229;-78
2022/06/02 04:03:26;;;;;;;2.40;2.30;;;17.50;65.80;;;;;;10361707;28;20550;-78
2022/06/02 04:08:49;;;;;;;2.87;2.67;;;17.40;65.90;;;;;;10371062;28;20226;-77
2022/06/02 04:14:05;;;;;;;3.10;2.90;;;17.30;66.20;;;;;;10363705;28;20643;-78
2022/06/02 04:25:07;;;;;;;2.90;2.70;;;17.00;66.60;;;;;;10364256;28;20198;-78
2022/06/02 04:30:18;;;;;;;3.23;3.10;;;17.00;66.80;;;;;;10358029;28;20280;-78
2022/06/02 04:35:31;;;;;;;3.10;2.90;;;17.00;69.20;;;;;;10346603;28;20212;-77
2022/06/02 04:40:44;;;;;;;3.30;3.10;;;17.10;68.30;;;;;;10364899;28;20248;-78
2022/06/02 04:46:09;;;;;;;3.00;2.90;;;17.00;68.60;;;;;;10353953;28;20195;-78
2022/06/02 04:51:21;;;;;;;5.17;2.73;;;16.90;68.30;;;;;;10355137;28;20249;-77
2022/06/02 04:56:31;;;;;;;2.30;2.20;;;16.80;68.90;;;;;;10360647;28;20245;-77
2022/06/02 05:01:42;;;;;;;2.90;2.80;;;16.80;70.40;;;;;;10366002;28;20218;-77
2022/06/02 05:06:50;;;;;;;6.47;2.80;;;17.00;69.00;;;;;;10347271;28;20221;-77
2022/06/02 05:12:04;;;;;;;3.53;3.03;;;16.90;69.40;;;;;;10367675;28;20230;-77
2022/06/02 05:17:34;;;;;;;2.60;2.50;;;17.00;71.20;;;;;;10364577;28;20198;-77
2022/06/02 05:23:10;;;;;;;2.83;2.70;;;17.20;71.30;;;;;;10355463;28;20198;-77
2022/06/02 05:28:35;;;;;;;2.70;2.50;;;17.50;70.70;;;;;;10351226;28;20333;-77
2022/06/02 05:34:15;;;;;;;2.90;2.70;;;17.70;69.10;;;;;;10358446;28;20199;-77
2022/06/02 05:39:32;;;;;;;2.40;2.30;;;18.00;64.90;;;;;;10342606;28;20642;-78
2022/06/02 05:44:49;;;;;;;2.53;2.43;;;18.20;64.30;;;;;;10365650;28;20209;-77
2022/06/02 05:49:58;;;;;;;2.70;2.30;;;18.40;64.50;;;;;;10360865;28;20229;-77
2022/06/02 05:55:30;;;;;;;2.50;2.40;;;18.50;63.00;;;;;;10355492;28;20275;-77
2022/06/02 06:00:45;;;;;;;2.47;2.30;;;18.50;60.50;;;;;;10360625;28;20294;-77
2022/06/02 06:05:51;;;;;;;3.43;3.07;;;18.60;59.80;;;;;;10357854;28;20210;-77
2022/06/02 06:11:02;;;;;;;2.73;2.57;;;18.50;63.60;;;;;;10390806;22;20238;-80
2022/06/02 06:16:17;;;;;;;3.10;2.90;;;18.50;63.60;;;;;;10394313;28;20213;-82
2022/06/02 06:21:30;;;;;;;4.50;2.90;;;18.60;61.20;;;;;;10359483;28;20730;-79
2022/06/02 06:26:39;;;;;;;2.60;2.50;;;18.70;64.30;;;;;;10361645;28;20325;-80
2022/06/02 06:31:54;;;;;;;3.10;2.90;;;18.80;62.30;;;;;;10373680;28;20226;-78
2022/06/02 06:37:15;;;;;;;3.50;2.30;;;18.90;62.00;;;;;;10358503;28;20285;-79
2022/06/02 06:42:35;;;;;;;3.70;3.40;;;18.90;64.80;;;;;;10368716;28;20223;-79
2022/06/02 06:47:44;;;;;;;4.80;2.63;;;19.00;64.80;;;;;;10372890;28;20221;-78
2022/06/02 06:53:16;;;;;;;3.13;2.77;;;19.20;62.40;;;;;;10342079;28;20661;-78
2022/06/02 06:58:32;;;;;;;5.20;2.77;;;19.30;61.50;;;;;;10367343;28;20229;-81
2022/06/02 07:03:46;;;;;;;2.90;2.70;;;19.40;59.20;;;;;;10350929;28;20201;-79
2022/06/02 07:08:54;;;;;;;3.10;2.80;;;19.40;60.70;;;;;;10363389;28;20223;-79
2022/06/02 07:14:03;;;;;;;3.00;2.80;;;19.60;62.10;;;;;;10361401;28;20236;-80
2022/06/02 07:19:17;;;;;;;3.43;3.00;;;19.70;60.00;;;;;;10347846;28;20246;-79
2022/06/02 07:24:35;;;;;;;2.67;2.47;;;20.00;59.70;;;;;;10349832;28;20243;-79
2022/06/02 07:29:57;;;;;;;3.37;3.20;;;20.20;59.00;;;;;;10347229;28;20249;-78
2022/06/02 07:35:41;;;;;;;2.87;2.67;;;20.40;58.90;;;;;;10352426;28;20207;-79
2022/06/02 07:41:09;;;;;;;2.80;2.60;;;20.60;59.00;;;;;;10350913;28;20230;-81
2022/06/02 07:46:35;;;;;;;2.77;2.57;;;21.00;58.60;;;;;;10348797;28;20238;-80
2022/06/02 07:51:42;;;;;;;8.10;2.70;;;21.40;57.50;;;;;;10347212;28;20219;-79
2022/06/02 07:56:52;;;;;;;4.97;2.70;;;21.70;57.80;;;;;;10359711;28;20234;-80
2022/06/02 08:02:19;;;;;;;2.50;2.33;;;22.20;55.20;;;;;;10355234;28;20223;-80
2022/06/02 08:07:29;;;;;;;2.67;2.57;;;22.90;55.30;;;;;;10363650;28;20211;-82
2022/06/02 08:12:39;;;;;;;2.93;2.50;;;23.60;55.00;;;;;;10369199;28;20238;-80
2022/06/02 08:17:48;;;;;;;2.70;2.50;;;24.40;54.40;;;;;;10353631;28;20199;-79
2022/06/02 08:23:00;;;;;;;3.23;2.60;;;25.00;52.40;;;;;;10360093;28;20223;-79
2022/06/02 08:28:22;;;;;;;3.50;2.50;;;25.40;51.10;;;;;;10348584;28;20226;-79
2022/06/02 08:33:50;;;;;;;3.10;2.90;;;25.80;50.90;;;;;;10361553;28;20255;-79
2022/06/02 08:39:31;;;;;;;2.60;2.40;;;26.30;50.80;;;;;;10358254;28;20218;-80
2022/06/02 08:45:22;;;;;;;3.40;2.77;;;26.70;51.00;;;;;;10364919;28;20658;-82
2022/06/02 08:51:23;;;;;;;2.80;2.60;;;26.90;50.20;;;;;;10370805;28;20233;-82
2022/06/02 08:56:57;;;;;;;4.73;2.63;;;27.10;48.50;;;;;;10145136;29;20648;-81
2022/06/02 09:02:15;;;;;;;3.03;2.73;;;27.10;50.00;;;;;;10349438;28;20237;-78
2022/06/02 09:07:52;;;;;;;2.80;2.60;;;27.50;49.60;;;;;;10356865;28;20801;-82
2022/06/02 09:13:32;;;;;;;2.57;2.47;;;27.70;48.00;;;;;;10356494;28;20234;-81
2022/06/02 09:19:11;;;;;;;2.80;2.40;;;27.90;48.60;;;;;;10373280;28;20281;-80
2022/06/02 09:24:26;;;;;;;2.27;2.17;;;28.00;48.00;;;;;;10348400;28;20207;-80
2022/06/02 09:29:42;;;;;;;2.50;2.30;;;28.10;48.80;;;;;;10356828;28;20589;-81
2022/06/02 09:34:59;;;;;;;2.40;2.30;;;28.50;48.30;;;;;;10344995;28;20210;-81
2022/06/02 09:40:13;;;;;;;2.70;2.50;;;29.10;46.70;;;;;;10338700;28;20233;-81
2022/06/02 09:45:33;;;;;;;2.73;2.53;;;29.70;46.30;;;;;;10365866;28;20244;-82
2022/06/02 09:50:58;;;;;;;3.00;2.80;;;30.90;45.60;;;;;;10352361;28;20223;-81
2022/06/02 09:56:20;;;;;;;2.73;1.40;;;32.40;44.10;;;;;;10358689;28;20241;-81
2022/06/02 10:01:33;;;;;;;3.17;2.70;;;33.40;42.30;;;;;;10349621;28;20233;-82
2022/06/02 10:07:07;;;;;;;2.57;2.47;;;34.00;42.80;;;;;;10373452;28;20313;-80
2022/06/02 10:17:55;;;;;;;2.50;2.40;;;35.10;41.20;;;;;;10335973;28;20190;-81
2022/06/02 10:23:18;;;;;;;3.97;2.90;;;34.30;39.40;;;;;;10364064;28;20226;-81
2022/06/02 10:29:01;;;;;;;2.13;2.00;;;32.10;42.00;;;;;;10357809;28;20269;-81
2022/06/02 10:34:39;;;;;;;2.13;2.03;;;30.10;43.60;;;;;;10346637;28;20194;-80
2022/06/02 10:40:01;;;;;;;2.67;2.47;;;28.70;44.70;;;;;;10346620;28;20305;-80
2022/06/02 10:45:26;;;;;;;2.20;2.10;;;27.50;46.30;;;;;;10349894;28;20291;-80
2022/06/02 10:50:47;;;;;;;2.93;2.40;;;26.50;47.70;;;;;;10384506;28;20288;-79
2022/06/02 10:56:31;;;;;;;2.50;2.40;;;25.80;49.30;;;;;;10368609;28;20213;-79
2022/06/02 11:02:26;;;;;;;2.73;2.60;;;25.20;50.40;;;;;;10366492;28;20297;-80
2022/06/02 11:08:15;;;;;;;2.70;2.60;;;24.80;51.80;;;;;;10341746;28;20262;-80
2022/06/02 11:14:03;;;;;;;2.33;2.23;;;24.30;51.60;;;;;;10344090;28;20641;-83
2022/06/02 11:19:40;;;;;;;2.87;2.67;;;24.00;52.10;;;;;;10348665;28;20215;-82
2022/06/02 11:25:08;;;;;;;2.30;2.20;;;23.70;52.60;;;;;;10369370;28;20730;-80
2022/06/02 11:30:40;;;;;;;5.37;2.13;;;23.70;52.80;;;;;;10349332;28;20241;-82
2022/06/02 11:36:11;;;;;;;2.70;2.50;;;23.60;52.30;;;;;;10340332;28;20622;-81
2022/06/02 11:41:38;;;;;;;2.83;2.63;;;23.50;53.60;;;;;;10320765;28;20223;-82
2022/06/02 11:47:13;;;;;;;3.07;2.10;;;23.50;53.60;;;;;;10381805;28;20203;-80
2022/06/02 11:52:54;;;;;;;2.30;2.20;;;23.50;54.20;;;;;;10373604;28;20253;-80
2022/06/02 11:58:16;;;;;;;2.60;2.50;;;23.60;53.30;;;;;;10340394;28;20204;-81
2022/06/02 12:03:53;;;;;;;2.30;2.20;;;23.70;53.50;;;;;;10360652;28;20660;-79
2022/06/02 12:09:33;;;;;;;2.30;2.20;;;23.80;54.00;;;;;;10346929;22;20211;-79
2022/06/02 12:14:55;;;;;;;1.90;1.80;;;23.90;53.40;;;;;;10390509;28;20307;-77
2022/06/02 12:20:13;;;;;;;8.40;2.90;;;24.00;54.10;;;;;;10387386;28;20229;-76
2022/06/02 12:25:30;;;;;;;2.10;2.00;;;24.20;53.70;;;;;;10413914;28;20233;-77
2022/06/02 12:30:45;;;;;;;2.40;2.30;;;24.40;54.60;;;;;;10418291;28;20575;-77
2022/06/02 12:36:22;;;;;;;2.50;2.40;;;24.60;53.50;;;;;;10414880;28;20661;-78
2022/06/02 12:41:35;;;;;;;2.80;2.60;;;24.80;53.70;;;;;;10402538;28;20245;-78
2022/06/02 12:47:10;;;;;;;2.57;2.37;;;24.90;54.60;;;;;;10415262;28;20301;-77
2022/06/02 12:52:36;;;;;;;2.40;2.20;;;25.00;53.60;;;;;;10408989;28;20226;-77
2022/06/02 12:58:21;;;;;;;2.63;2.53;;;25.20;53.30;;;;;;10400504;28;20210;-77
2022/06/02 13:04:03;;;;;;;2.53;2.20;;;25.30;52.90;;;;;;10390559;28;20217;-77
2022/06/02 13:09:30;;;;;;;2.53;2.43;;;25.30;53.40;;;;;;10391731;28;20225;-77
2022/06/02 13:15:02;;;;;;;2.57;2.40;;;25.20;53.40;;;;;;10378292;28;20301;-77
2022/06/02 13:20:34;;;;;;;1.90;1.80;;;25.10;53.70;;;;;;10413037;28;20226;-77
2022/06/02 13:26:15;;;;;;;4.47;2.40;;;25.00;53.90;;;;;;10415636;28;20204;-77
2022/06/02 13:31:55;;;;;;;3.20;2.20;;;24.90;53.20;;;;;;10407414;28;20226;-77
2022/06/02 13:37:20;;;;;;;2.80;2.60;;;24.80;54.10;;;;;;10388924;28;20220;-77
2022/06/02 13:43:04;;;;;;;2.43;2.33;;;24.90;53.70;;;;;;10382860;28;20605;-77
2022/06/02 13:48:38;;;;;;;6.50;2.30;;;25.00;54.20;;;;;;10378894;28;20214;-77
2022/06/02 14:00:12;;;;;;;2.23;2.13;;;25.10;54.20;;;;;;10364587;28;20264;-77
2022/06/02 14:05:35;;;;;;;2.70;2.50;;;25.10;54.20;;;;;;10334148;28;20205;-77
2022/06/02 14:10:51;;;;;;;2.30;2.20;;;25.10;54.50;;;;;;10394916;28;20222;-77
2022/06/02 14:16:03;;;;;;;2.33;2.23;;;25.10;54.60;;;;;;10386073;28;20281;-77
2022/06/02 14:21:13;;;;;;;2.37;1.93;;;24.90;55.20;;;;;;10405774;28;20244;-77
2022/06/02 14:26:24;;;;;;;2.20;2.10;;;24.60;54.90;;;;;;10403779;28;20204;-77
2022/06/02 14:31:35;;;;;;;2.60;1.80;;;24.40;55.20;;;;;;10391357;28;20225;-77
2022/06/02 14:36:44;;;;;;;2.57;2.47;;;24.20;55.80;;;;;;10413033;28;20198;-77
2022/06/02 14:42:16;;;;;;;2.70;2.50;;;24.00;56.20;;;;;;10407354;28;20209;-77
2022/06/02 14:47:31;;;;;;;2.00;1.90;;;24.10;55.70;;;;;;10389016;28;20209;-77
2022/06/02 14:53:01;;;;;;;2.40;2.30;;;24.10;55.90;;;;;;10409992;28;20226;-77
2022/06/02 14:58:15;;;;;;;2.70;2.37;;;24.30;54.60;;;;;;10415449;28;20271;-77
2022/06/02 15:03:57;;;;;;;2.27;2.17;;;24.20;55.80;;;;;;10411107;28;20222;-78
2022/06/02 15:09:25;;;;;;;2.60;2.40;;;24.20;56.00;;;;;;10416858;28;20236;-77
2022/06/02 15:14:43;;;;;;;2.40;2.30;;;24.20;54.90;;;;;;10419790;28;20201;-77
2022/06/02 15:20:05;;;;;;;3.13;2.50;;;24.20;58.00;;;;;;10422078;28;20222;-77
2022/06/02 15:25:18;;;;;;;2.53;2.43;;;24.20;59.60;;;;;;10411317;28;20256;-77
2022/06/02 15:30:29;;;;;;;2.33;2.13;;;24.20;58.40;;;;;;10405215;28;20264;-77
2022/06/02 15:35:46;;;;;;;2.10;2.00;;;24.10;58.60;;;;;;10392847;28;20263;-77
2022/06/02 15:41:30;;;;;;;3.50;2.10;;;24.00;58.10;;;;;;10414613;28;20222;-76
2022/06/02 15:47:07;;;;;;;2.83;2.20;;;23.80;57.10;;;;;;10406756;28;20205;-77
2022/06/02 15:52:46;;;;;;;2.33;2.23;;;23.60;60.00;;;;;;10402548;28;20713;-77
2022/06/02 15:58:07;;;;;;;2.60;2.40;;;23.50;63.30;;;;;;10391794;28;20209;-77
2022/06/02 16:04:09;;;;;;;2.50;2.40;;;23.50;62.60;;;;;;10392186;28;20317;-77
2022/06/02 16:15:48;;;;;;;3.23;2.53;;;23.50;66.10;;;;;;10417347;28;20198;-77
2022/06/02 16:21:28;;;;;;;2.57;2.47;;;23.50;67.20;;;;;;10412087;28;20218;-77
2022/06/02 16:26:54;;;;;;;2.43;2.33;;;23.60;62.30;;;;;;10410222;28;20198;-77
2022/06/02 16:32:16;;;;;;;2.73;2.53;;;23.60;64.00;;;;;;10409760;28;20237;-77
2022/06/02 16:37:28;;;;;;;2.40;2.20;;;23.60;60.60;;;;;;10416781;28;20587;-77
2022/06/02 16:43:00;;;;;;;2.50;2.30;;;23.50;62.90;;;;;;10421054;28;20237;-78
2022/06/02 16:48:34;;;;;;;2.17;1.97;;;23.50;61.80;;;;;;10412142;28;20313;-78
2022/06/02 16:54:07;;;;;;;2.60;2.40;;;23.60;61.20;;;;;;10390320;28;20237;-76
2022/06/02 17:00:03;;;;;;;2.40;2.30;;;23.70;61.80;;;;;;10408506;28;20232;-76
2022/06/02 17:05:35;;;;;;;4.80;2.53;;;23.70;60.50;;;;;;10183717;29;20247;-76
2022/06/02 17:10:43;;;;;;;2.23;2.13;;;23.70;59.70;;;;;;10380232;28;20284;-77
2022/06/02 17:16:18;;;;;;;2.50;2.40;;;23.60;61.60;;;;;;10410758;28;20204;-77
2022/06/02 17:21:48;;;;;;;3.00;2.80;;;23.50;59.60;;;;;;10412705;28;20218;-77
2022/06/02 17:27:26;;;;;;;2.80;2.70;;;23.30;60.20;;;;;;10408072;28;20295;-77
2022/06/02 17:32:55;;;;;;;2.53;2.43;;;23.10;62.50;;;;;;10388737;28;20303;-76
2022/06/02 17:38:50;;;;;;;6.13;3.00;;;23.00;62.80;;;;;;10407460;28;20580;-76
2022/06/02 17:44:22;;;;;;;2.90;2.80;;;22.90;64.00;;;;;;10380873;28;20210;-76
2022/06/02 17:49:33;;;;;;;4.13;3.83;;;22.90;63.80;;;;;;10405325;28;20265;-77
2022/06/02 17:55:12;;;;;;;3.00;2.80;;;22.80;64.60;;;;;;10408783;28;20206;-76
2022/06/02 18:00:28;;;;;;;2.90;2.70;;;22.80;63.10;;;;;;10393441;28;20225;-76
2022/06/02 18:05:54;;;;;;;2.40;2.30;;;22.70;63.10;;;;;;10385658;28;20201;-76
2022/06/02 18:11:26;;;;;;;2.37;2.27;;;22.70;66.50;;;;;;10415270;22;20236;-78
2022/06/02 18:17:19;;;;;;;3.07;2.87;;;22.60;66.40;;;;;;10396926;28;20204;-78
2022/06/02 18:22:59;;;;;;;2.97;2.77;;;22.60;64.10;;;;;;10378027;28;20222;-77
2022/06/02 18:28:49;;;;;;;2.10;2.00;;;22.50;66.80;;;;;;10402317;28;20233;-77
2022/06/02 18:34:22;;;;;;;2.87;2.67;;;22.40;67.50;;;;;;10403298;28;20301;-77
2022/06/02 18:39:53;;;;;;;3.80;2.80;;;22.40;68.80;;;;;;10410058;28;20328;-77
2022/06/02 18:45:24;;;;;;;2.60;2.50;;;22.30;69.40;;;;;;10408777;28;20272;-77
2022/06/02 18:50:50;;;;;;;4.70;2.80;;;22.20;69.50;;;;;;10400848;28;20240;-77
2022/06/02 18:56:15;;;;;;;3.93;3.50;;;22.10;70.30;;;;;;10383999;28;20296;-77
2022/06/02 19:02:01;;;;;;;3.30;3.00;;;21.90;70.30;;;;;;10380363;28;20229;-77
2022/06/02 19:13:46;;;;;;;3.13;2.83;;;21.60;71.80;;;;;;10296170;28;1088187;-76
2022/06/02 19:19:09;;;;;;;3.10;2.90;;;21.40;71.60;;;;;;10372324;28;20252;-77
2022/06/02 19:24:34;;;;;;;3.13;2.93;;;21.20;71.90;;;;;;10405813;28;20267;-77
2022/06/02 19:29:56;;;;;;;2.70;2.50;;;20.90;71.80;;;;;;10406552;28;20283;-77
2022/06/02 19:35:05;;;;;;;3.67;3.37;;;20.80;72.20;;;;;;10403172;28;20206;-77
2022/06/02 19:40:16;;;;;;;2.83;2.73;;;20.70;72.50;;;;;;10388485;28;20260;-77
2022/06/02 19:45:26;;;;;;;3.13;2.90;;;20.50;73.00;;;;;;10414496;28;20663;-76
2022/06/02 19:50:34;;;;;;;3.30;3.10;;;20.30;73.50;;;;;;10413229;28;20260;-77
2022/06/02 19:55:45;;;;;;;3.40;3.10;;;20.20;73.80;;;;;;10414019;28;20204;-76
2022/06/02 20:01:03;;;;;;;3.10;2.90;;;20.20;74.10;;;;;;10415694;28;20214;-76
2022/06/02 20:06:13;;;;;;;4.10;3.77;;;20.10;74.40;;;;;;10408672;28;20280;-76
2022/06/02 20:11:27;;;;;;;3.63;3.43;;;20.00;74.50;;;;;;10411961;28;20656;-76
2022/06/02 20:16:34;;;;;;;3.83;3.47;;;20.00;75.00;;;;;;10412799;28;20502;-76
2022/06/02 20:21:41;;;;;;;4.23;3.83;;;19.90;75.20;;;;;;10413243;28;20267;-76
2022/06/02 20:26:49;;;;;;;3.40;3.20;;;19.90;75.60;;;;;;10412545;28;20658;-77
2022/06/02 20:31:59;;;;;;;4.13;3.60;;;19.90;75.60;;;;;;10405193;28;20230;-76
2022/06/02 20:37:24;;;;;;;3.40;3.10;;;19.90;75.30;;;;;;10403180;28;20276;-76
2022/06/02 20:42:49;;;;;;;3.67;3.40;;;19.90;75.90;;;;;;10374222;28;20615;-77
2022/06/02 20:48:02;;;;;;;2.93;2.83;;;19.90;75.70;;;;;;10391936;28;20205;-78
2022/06/02 20:53:13;;;;;;;3.70;3.50;;;19.90;75.80;;;;;;10369014;28;20240;-78
2022/06/02 20:58:28;;;;;;;5.00;3.83;;;20.00;76.10;;;;;;10387295;28;20210;-78
2022/06/02 21:03:38;;;;;;;3.80;3.50;;;20.00;76.10;;;;;;10381427;28;20210;-77
2022/06/02 21:08:45;;;;;;;6.33;3.97;;;20.00;75.80;;;;;;10381418;28;20557;-78
2022/06/02 21:13:59;;;;;;;4.40;4.10;;;20.00;75.70;;;;;;10381633;28;20796;-78
2022/06/02 21:19:09;;;;;;;3.67;3.40;;;19.80;75.60;;;;;;10398380;28;20717;-78
2022/06/02 21:24:19;;;;;;;3.40;3.20;;;19.70;76.10;;;;;;10395026;28;20202;-78
2022/06/02 21:29:26;;;;;;;4.13;3.20;;;19.70;76.30;;;;;;10405256;28;20702;-78
2022/06/02 21:34:31;;;;;;;4.10;3.80;;;19.60;76.60;;;;;;10402180;28;20197;-78
2022/06/02 21:39:37;;;;;;;3.73;3.53;;;19.70;76.70;;;;;;10400174;28;20218;-79
2022/06/02 21:44:48;;;;;;;3.90;3.60;;;19.70;76.70;;;;;;10386980;28;20195;-78
2022/06/02 21:49:56;;;;;;;3.60;3.30;;;19.50;77.10;;;;;;10397812;28;20218;-80
2022/06/02 21:55:11;;;;;;;4.00;3.70;;;19.50;77.70;;;;;;10370661;28;20285;-78
2022/06/02 22:00:41;;;;;;;4.40;4.00;;;19.40;78.80;;;;;;10366028;28;20222;-78
2022/06/02 22:05:49;;;;;;;4.23;3.93;;;19.40;78.70;;;;;;10371077;28;20202;-78
2022/06/02 22:10:55;;;;;;;3.60;3.40;;;19.20;78.80;;;;;;10395486;28;20221;-78
2022/06/02 22:16:02;;;;;;;4.03;3.73;;;19.30;79.20;;;;;;10395786;28;20207;-78
2022/06/02 22:21:10;;;;;;;3.40;3.20;;;19.10;79.60;;;;;;10398265;28;20244;-78
2022/06/02 22:26:22;;;;;;;4.70;4.30;;;19.00;79.90;;;;;;10408048;28;20212;-78
2022/06/02 22:31:40;;;;;;;3.93;3.73;;;19.00;80.70;;;;;;10390589;28;20782;-78
2022/06/02 22:37:09;;;;;;;4.27;3.97;;;19.00;81.00;;;;;;10401039;28;20213;-78
2022/06/02 22:42:23;;;;;;;4.50;4.20;;;18.90;81.40;;;;;;10397610;28;20321;-78
2022/06/02 22:47:52;;;;;;;4.40;4.00;;;18.90;81.30;;;;;;10399621;28;20201;-78
2022/06/02 22:53:17;;;;;;;4.50;4.10;;;18.80;81.50;;;;;;10409653;28;20252;-78
2022/06/02 22:58:53;;;;;;;7.57;4.93;;;18.80;81.90;;;;;;10401453;28;20712;-77
2022/06/02 23:04:07;;;;;;;4.20;3.90;;;18.70;82.30;;;;;;10390363;28;20305;-78
2022/06/02 23:09:21;;;;;;;4.20;3.90;;;18.70;83.50;;;;;;10383556;28;20201;-78
2022/06/02 23:15:02;;;;;;;4.37;4.07;;;18.70;83.60;;;;;;10396293;28;20682;-78
2022/06/02 23:20:23;;;;;;;5.33;3.90;;;18.70;83.90;;;;;;10404180;28;20228;-78
2022/06/02 23:25:39;;;;;;;5.07;4.57;;;18.70;84.70;;;;;;10411422;28;20202;-78
2022/06/02 23:30:55;;;;;;;4.27;4.00;;;18.70;84.60;;;;;;10407886;28;20600;-78
2022/06/02 23:36:10;;;;;;;5.13;4.67;;;18.70;85.30;;;;;;10389541;28;20575;-77
2022/06/02 23:44:10;;;;;;;4.70;4.40;;;18.70;85.50;;;;;;10380962;28;20601;-78
2022/06/02 23:47:22;;;;;;;4.50;4.20;;;18.70;86.40;;;;;;10389242;28;20191;-77
2022/06/02 23:52:56;;;;;;;4.80;4.40;;;18.60;86.30;;;;;;10408234;28;20280;-77
2022/06/02 23:58:14;;;;;;;4.63;4.23;;;18.70;86.20;;;;;;10403541;28;20659;-78
